Time;durP1;ratioP1;P1;durP2;ratioP2;P2;SDS_P1;SDS_P2;PMS_P1;PMS_P2;Temp;Humidity;BMP_temperature;BMP_pressure;BME280_temperature;BME280_humidity;BME280_pressure;Samples;Min_cycle;Max_cycle;Signal;HPM_P1;HPM_P2
2020/12/05 00:01:05;;;;;;;46.90;25.83;;;;;;;1.84;84.13;99027.41;4928495;29;20059;-79
2020/12/05 00:03:32;;;;;;;53.92;26.77;;;;;;;1.85;83.56;99013.53;4938417;29;20831;-76
2020/12/05 00:06:00;;;;;;;48.45;25.05;;;;;;;1.94;83.18;99013.09;4937557;29;20051;-79
2020/12/05 00:08:27;;;;;;;50.30;26.42;;;;;;;1.91;83.60;99006.28;4930608;29;20084;-80
2020/12/05 00:10:54;;;;;;;44.95;24.42;;;;;;;1.88;83.05;99002.97;4919121;29;20039;-80
2020/12/05 00:13:21;;;;;;;42.75;25.08;;;;;;;1.85;83.53;99009.19;4929477;29;20052;-78
2020/12/05 00:15:48;;;;;;;47.78;26.30;;;;;;;1.91;84.36;99001.09;4932006;29;20052;-79
2020/12/05 00:18:14;;;;;;;49.78;26.35;;;;;;;1.88;83.47;99015.97;4930520;29;20060;-76
2020/12/05 00:20:41;;;;;;;50.65;27.60;;;;;;;1.90;83.22;99022.75;4945195;29;20060;-77
2020/12/05 00:23:08;;;;;;;49.22;26.80;;;;;;;1.86;83.78;99031.63;4948992;29;20051;-78
2020/12/05 00:25:34;;;;;;;45.67;26.23;;;;;;;1.58;84.58;99026.94;4940825;29;20067;-78
2020/12/05 00:28:01;;;;;;;54.17;27.30;;;;;;;1.59;84.83;99032.94;4947367;29;20055;-77
2020/12/05 00:30:28;;;;;;;55.88;29.13;;;;;;;1.52;85.25;99046.19;4945680;29;20051;-78
2020/12/05 00:33:00;;;;;;;58.80;27.45;;;;;;;1.60;84.71;99048.44;4937299;29;20070;-77
2020/12/05 00:35:27;;;;;;;55.38;28.77;;;;;;;1.47;84.87;99040.38;4941806;29;20150;-79
2020/12/05 00:37:55;;;;;;;61.20;27.63;;;;;;;1.60;84.45;99034.63;4926436;29;20083;-78
2020/12/05 00:40:22;;;;;;;48.75;27.73;;;;;;;1.56;84.67;99013.16;4935993;29;20047;-78
2020/12/05 00:42:49;;;;;;;53.85;26.70;;;;;;;1.56;84.66;99002.81;4932130;29;20043;-78
2020/12/05 00:45:16;;;;;;;45.10;25.98;;;;;;;1.61;84.26;98989.59;4942515;29;20106;-78
2020/12/05 00:47:43;;;;;;;50.35;26.15;;;;;;;1.54;85.27;99002.03;4933460;29;20058;-80
2020/12/05 00:50:12;;;;;;;51.17;27.25;;;;;;;1.60;84.86;98996.56;4933869;29;20058;-80
2020/12/05 00:52:39;;;;;;;51.25;28.38;;;;;;;1.59;84.74;98997.47;4927482;29;20514;-77
2020/12/05 00:55:05;;;;;;;48.10;26.90;;;;;;;1.61;84.87;98994.78;4932961;29;20056;-78
2020/12/05 00:57:33;;;;;;;59.78;29.45;;;;;;;1.50;85.35;99001.34;4939407;29;20056;-78
2020/12/05 01:00:01;;;;;;;47.08;25.98;;;;;;;1.54;85.58;98998.63;4936835;29;20032;-79
2020/12/05 01:02:28;;;;;;;60.00;31.35;;;;;;;1.41;85.56;98995.75;4929426;29;20052;-78
2020/12/05 01:04:55;;;;;;;59.20;30.10;;;;;;;1.40;86.05;99002.72;4928961;29;20530;-79
2020/12/05 01:07:25;;;;;;;52.55;28.58;;;;;;;1.28;86.60;99005.88;4930026;29;20188;-78
2020/12/05 01:09:53;;;;;;;54.13;28.70;;;;;;;1.50;85.93;99018.66;4928765;29;20435;-78
2020/12/05 01:12:20;;;;;;;53.03;28.83;;;;;;;1.54;85.85;99015.00;4941223;28;20051;-79
2020/12/05 01:14:47;;;;;;;51.97;28.35;;;;;;;1.58;85.49;99002.75;4919633;29;20117;-76
2020/12/05 01:17:14;;;;;;;55.55;29.95;;;;;;;1.38;86.04;99012.28;4938792;29;20159;-78
2020/12/05 01:19:40;;;;;;;48.83;28.05;;;;;;;1.40;86.54;99018.25;4936410;29;20063;-78
2020/12/05 01:22:07;;;;;;;48.65;28.83;;;;;;;1.50;86.24;99014.31;4937970;29;20513;-77
2020/12/05 01:24:34;;;;;;;50.83;28.10;;;;;;;1.37;86.91;99008.03;4936812;29;20063;-79
2020/12/05 01:27:00;;;;;;;52.95;28.92;;;;;;;1.41;86.30;99017.34;4956567;28;20120;-78
2020/12/05 01:29:27;;;;;;;50.90;28.13;;;;;;;1.50;86.26;99013.47;4934914;28;20424;-78
2020/12/05 01:31:54;;;;;;;48.35;27.75;;;;;;;1.47;85.93;99016.19;4937237;29;20056;-79
2020/12/05 01:34:21;;;;;;;53.90;29.08;;;;;;;1.41;85.69;99019.94;4933668;29;20075;-78
2020/12/05 01:36:48;;;;;;;49.92;27.45;;;;;;;1.31;86.67;99023.88;4938622;29;20048;-79
2020/12/05 01:39:14;;;;;;;45.70;26.60;;;;;;;1.37;86.67;99030.53;4942949;29;20079;-79
2020/12/05 01:41:41;;;;;;;53.78;28.15;;;;;;;1.35;86.68;99019.38;4949934;29;20066;-77
2020/12/05 01:44:08;;;;;;;50.05;27.83;;;;;;;1.41;86.18;99001.78;4946656;29;20043;-77
2020/12/05 01:46:40;;;;;;;51.22;27.13;;;;;;;1.34;86.60;99008.16;4962890;28;20058;-76
2020/12/05 01:49:09;;;;;;;49.92;28.35;;;;;;;1.37;86.43;99000.25;4967661;28;20063;-78
2020/12/05 01:51:36;;;;;;;51.72;28.58;;;;;;;1.31;86.87;99010.09;4930550;29;20064;-79
2020/12/05 01:54:04;;;;;;;55.10;27.70;;;;;;;1.35;86.69;99004.69;4931721;29;20582;-77
2020/12/05 01:56:30;;;;;;;58.75;29.77;;;;;;;1.28;86.75;99003.28;4931596;29;20056;-77
2020/12/05 01:58:57;;;;;;;46.88;26.02;;;;;;;1.31;86.54;99010.09;4936355;29;20549;-78
2020/12/05 02:01:25;;;;;;;48.63;26.20;;;;;;;1.27;86.83;99009.38;4935283;29;20058;-79
2020/12/05 02:03:55;;;;;;;51.13;28.60;;;;;;;1.25;86.54;99006.84;4936596;29;20051;-77
2020/12/05 02:06:46;;;;;;;58.00;29.95;;;;;;;1.17;86.96;98996.00;4935318;29;20095;-78
2020/12/05 02:09:25;;;;;;;56.35;27.10;;;;;;;1.21;86.93;99007.06;4960683;28;20577;-77
2020/12/05 02:11:58;;;;;;;48.75;28.80;;;;;;;1.16;87.05;99014.19;4937005;29;20070;-77
2020/12/05 02:14:26;;;;;;;53.65;27.75;;;;;;;1.08;87.42;99011.13;4946348;28;20086;-77
2020/12/05 02:16:54;;;;;;;50.92;28.83;;;;;;;1.08;87.57;99011.13;4940036;29;20936;-76
2020/12/05 02:19:21;;;;;;;48.35;27.23;;;;;;;1.12;87.01;99016.09;4931093;29;20058;-77
2020/12/05 02:21:50;;;;;;;49.08;26.85;;;;;;;1.13;87.23;99020.38;4910872;29;20570;-77
2020/12/05 02:24:17;;;;;;;52.70;28.65;;;;;;;1.18;86.88;99021.00;4935691;29;20060;-79
2020/12/05 02:26:44;;;;;;;53.60;27.08;;;;;;;1.12;87.02;99007.47;4930791;29;20135;-78
2020/12/05 02:29:11;;;;;;;45.83;26.60;;;;;;;1.17;86.59;99010.69;4941790;29;20094;-80
2020/12/05 02:31:38;;;;;;;50.80;26.45;;;;;;;1.23;86.65;99016.44;4945398;29;20056;-80
2020/12/05 02:34:05;;;;;;;47.78;26.02;;;;;;;1.25;86.29;99017.22;4931315;29;20131;-78
2020/12/05 02:36:35;;;;;;;48.83;25.25;;;;;;;1.37;85.96;99023.59;4947834;28;20091;-83
2020/12/05 02:39:09;;;;;;;42.08;24.77;;;;;;;1.45;85.28;99029.25;4938210;29;20142;-80
2020/12/05 02:41:40;;;;;;;45.47;26.02;;;;;;;1.49;85.66;99022.19;4930213;29;20048;-81
2020/12/05 02:44:07;;;;;;;46.97;25.63;;;;;;;1.37;85.86;99015.81;4932783;29;20062;-82
2020/12/05 02:46:34;;;;;;;43.17;24.92;;;;;;;1.38;85.76;99014.03;4953368;29;20082;-82
2020/12/05 02:49:01;;;;;;;47.97;25.50;;;;;;;1.49;85.06;99007.44;4944000;29;20055;-80
2020/12/05 02:51:27;;;;;;;46.00;24.17;;;;;;;1.48;84.99;99003.16;4959343;29;20059;-82
2020/12/05 02:53:58;;;;;;;49.55;26.80;;;;;;;1.50;84.66;99003.94;4959587;28;20079;-82
2020/12/05 02:56:24;;;;;;;43.72;23.83;;;;;;;1.48;84.93;99003.16;4955821;28;20068;-81
2020/12/05 02:58:51;;;;;;;47.30;26.25;;;;;;;1.47;84.60;99008.44;4965832;28;20099;-79
2020/12/05 03:01:18;;;;;;;42.85;23.58;;;;;;;1.36;85.02;99023.66;4955703;29;20083;-81
2020/12/05 03:03:44;;;;;;;45.63;24.92;;;;;;;1.35;85.02;99025.41;4959247;29;20043;-83
2020/12/05 03:06:11;;;;;;;44.97;24.23;;;;;;;1.29;85.46;99033.47;4950468;29;20114;-78
2020/12/05 03:08:38;;;;;;;47.30;26.08;;;;;;;1.19;85.64;99030.47;4954481;29;20155;-78
2020/12/05 03:11:06;;;;;;;44.53;25.30;;;;;;;1.24;85.96;99027.66;4941163;29;20083;-79
2020/12/05 03:13:33;;;;;;;50.67;26.27;;;;;;;1.09;86.20;99016.25;4942845;29;20074;-79
2020/12/05 03:16:00;;;;;;;46.15;24.73;;;;;;;1.15;86.05;99022.91;4937952;29;20063;-76
2020/12/05 03:18:27;;;;;;;44.40;25.27;;;;;;;1.10;86.08;99024.88;4932574;29;20063;-76
2020/12/05 03:20:54;;;;;;;47.20;25.20;;;;;;;1.05;86.06;99019.06;4948502;29;20079;-77
2020/12/05 03:23:21;;;;;;;45.53;23.85;;;;;;;1.11;85.97;99016.16;4947642;28;20116;-78
2020/12/05 03:25:47;;;;;;;52.05;27.88;;;;;;;1.01;86.64;99016.59;4947107;29;20078;-77
2020/12/05 03:28:14;;;;;;;47.05;25.73;;;;;;;0.98;86.41;99014.13;4945221;29;20486;-78
2020/12/05 03:30:41;;;;;;;45.47;25.02;;;;;;;0.98;86.43;99016.72;4953599;29;20138;-76
2020/12/05 03:33:12;;;;;;;46.38;25.85;;;;;;;0.95;86.81;99021.22;4947385;28;20106;-77
2020/12/05 03:35:39;;;;;;;45.72;25.08;;;;;;;0.94;87.14;99011.75;4938424;29;20061;-78
2020/12/05 03:38:05;;;;;;;45.63;25.75;;;;;;;0.91;86.76;99004.97;4941764;29;20081;-78
2020/12/05 03:40:32;;;;;;;49.00;25.40;;;;;;;0.85;86.90;99000.06;4938345;29;20079;-75
2020/12/05 03:42:59;;;;;;;49.05;26.15;;;;;;;0.83;87.42;99003.63;4934294;29;20059;-76
2020/12/05 03:45:26;;;;;;;47.92;25.48;;;;;;;0.87;86.80;99002.59;4939795;29;20125;-76
2020/12/05 03:47:53;;;;;;;42.65;24.63;;;;;;;0.95;86.95;99006.53;4949296;28;20043;-77
2020/12/05 03:50:20;;;;;;;50.80;25.08;;;;;;;0.93;86.72;99012.66;4946187;28;20071;-75
2020/12/05 03:52:46;;;;;;;48.38;26.90;;;;;;;0.80;87.42;99016.72;4944470;29;20051;-76
2020/12/05 03:55:13;;;;;;;49.90;26.30;;;;;;;0.98;87.19;99016.72;4933770;29;20094;-77
2020/12/05 03:57:40;;;;;;;47.13;25.10;;;;;;;0.94;86.93;99019.53;4934262;29;20054;-77
2020/12/05 04:00:07;;;;;;;51.65;27.17;;;;;;;1.06;86.46;99003.44;4916864;29;20066;-75
2020/12/05 04:02:33;;;;;;;48.70;26.80;;;;;;;1.05;86.66;98975.00;4942346;29;20059;-77
2020/12/05 04:05:00;;;;;;;43.45;24.63;;;;;;;1.07;86.19;98944.66;4930276;29;20047;-77
2020/12/05 04:07:27;;;;;;;46.38;24.70;;;;;;;1.11;86.34;98922.88;4929962;29;20415;-78
2020/12/05 04:09:54;;;;;;;47.85;23.80;;;;;;;1.16;86.28;98902.75;4930834;29;20134;-77
2020/12/05 04:12:20;;;;;;;43.17;23.52;;;;;;;1.35;85.13;98889.75;4928704;29;20074;-76
2020/12/05 04:14:47;;;;;;;45.85;23.80;;;;;;;1.35;85.09;98869.00;4933922;29;20096;-78
2020/12/05 04:17:14;;;;;;;42.50;22.73;;;;;;;1.39;84.51;98870.53;4928644;29;20079;-78
2020/12/05 04:19:41;;;;;;;41.28;21.50;;;;;;;1.50;84.32;98856.13;4938728;29;20060;-77
2020/12/05 04:22:07;;;;;;;43.95;23.88;;;;;;;1.51;84.28;98859.56;4942285;29;20047;-77
2020/12/05 04:24:34;;;;;;;42.40;22.27;;;;;;;1.54;83.77;98845.63;4941097;29;20427;-76
2020/12/05 04:27:01;;;;;;;36.67;21.27;;;;;;;1.47;84.19;98835.53;4946452;29;20051;-77
2020/12/05 04:29:28;;;;;;;37.13;21.30;;;;;;;1.51;84.14;98839.66;4931199;29;20410;-76
2020/12/05 04:31:55;;;;;;;38.17;21.58;;;;;;;1.58;84.10;98867.88;4935907;29;20499;-76
2020/12/05 04:34:22;;;;;;;39.22;20.65;;;;;;;1.58;83.74;98879.09;4929354;29;20044;-76
2020/12/05 04:36:48;;;;;;;33.95;19.60;;;;;;;1.48;84.08;98880.44;4927988;29;20066;-77
2020/12/05 04:39:15;;;;;;;39.70;21.83;;;;;;;1.51;84.18;98888.09;4931048;29;20078;-76
2020/12/05 04:41:42;;;;;;;42.47;21.80;;;;;;;1.42;84.61;98862.59;4925987;29;20400;-76
2020/12/05 04:44:10;;;;;;;43.05;22.40;;;;;;;1.42;84.44;98854.84;4930532;29;20417;-76
2020/12/05 04:46:36;;;;;;;38.38;21.17;;;;;;;1.40;84.59;98873.06;4928357;29;20052;-77
2020/12/05 04:49:04;;;;;;;40.47;21.58;;;;;;;1.56;84.11;98877.47;4930431;29;20139;-76
2020/12/05 04:51:37;;;;;;;35.70;21.70;;;;;;;1.57;83.94;98889.53;4930801;29;20056;-76
2020/12/05 04:54:05;;;;;;;39.85;21.48;;;;;;;1.51;84.06;98907.06;4923087;29;20228;-75
2020/12/05 04:56:38;;;;;;;36.78;20.63;;;;;;;1.68;84.06;98932.19;4927879;29;20047;-76
2020/12/05 04:59:07;;;;;;;36.85;20.85;;;;;;;1.68;83.61;98949.50;4919812;29;20052;-77
2020/12/05 05:01:36;;;;;;;38.03;19.70;;;;;;;1.78;83.33;98954.16;4939437;29;20083;-76
2020/12/05 05:04:04;;;;;;;42.03;22.02;;;;;;;1.73;83.25;98944.91;4939113;29;20139;-78
2020/12/05 05:06:32;;;;;;;34.40;19.88;;;;;;;1.70;83.44;98971.00;4932918;29;20058;-76
2020/12/05 05:08:59;;;;;;;34.35;19.60;;;;;;;1.65;83.81;98997.16;4940132;29;20103;-78
2020/12/05 05:11:27;;;;;;;38.63;20.95;;;;;;;1.65;83.73;98979.00;4932352;29;20048;-76
2020/12/05 05:14:01;;;;;;;38.08;20.85;;;;;;;1.60;83.86;98959.41;4933878;29;20577;-76
2020/12/05 05:16:28;;;;;;;38.30;20.23;;;;;;;1.55;84.25;98940.63;4929044;29;20055;-76
2020/12/05 05:18:56;;;;;;;38.75;20.48;;;;;;;1.51;84.60;98927.81;4921253;29;20047;-75
2020/12/05 05:21:40;;;;;;;35.42;21.27;;;;;;;1.51;84.27;98951.16;4936328;29;20051;-77
2020/12/05 05:24:17;;;;;;;38.17;21.30;;;;;;;1.50;84.68;98984.94;4943054;29;20055;-76
2020/12/05 05:27:08;;;;;;;37.70;20.60;;;;;;;1.32;84.91;98973.69;4955199;29;20060;-76
2020/12/05 05:29:41;;;;;;;40.10;21.52;;;;;;;1.26;85.41;98946.31;4935155;29;20140;-76
2020/12/05 05:32:21;;;;;;;37.83;21.17;;;;;;;1.19;85.96;98960.47;4950522;29;20119;-77
2020/12/05 05:34:48;;;;;;;39.08;22.83;;;;;;;1.29;85.64;98980.78;4956996;28;20115;-77
2020/12/05 05:37:17;;;;;;;37.55;20.40;;;;;;;1.27;85.82;98993.81;4924684;29;20065;-78
2020/12/05 05:39:44;;;;;;;33.95;20.40;;;;;;;1.40;85.32;99007.06;4932977;29;20143;-82
2020/12/05 05:42:11;;;;;;;37.88;20.70;;;;;;;1.28;85.69;99034.38;4936590;29;20103;-78
2020/12/05 05:44:38;;;;;;;38.53;20.88;;;;;;;1.26;85.86;99025.81;4897723;29;20062;-77
2020/12/05 05:47:05;;;;;;;36.38;21.25;;;;;;;1.16;86.32;99024.56;4942334;29;20051;-77
2020/12/05 05:49:33;;;;;;;43.38;22.23;;;;;;;1.12;86.21;99018.69;4935169;28;20059;-77
2020/12/05 05:52:04;;;;;;;38.15;22.00;;;;;;;1.17;86.28;98993.41;4920817;29;20055;-79
2020/12/05 05:54:33;;;;;;;38.95;22.08;;;;;;;1.22;85.85;99012.19;4922627;29;20514;-78
2020/12/05 05:57:03;;;;;;;35.95;20.83;;;;;;;1.14;86.05;99000.50;4931114;29;20704;-78
2020/12/05 05:59:38;;;;;;;37.88;21.58;;;;;;;0.97;86.85;98999.50;4939192;29;20062;-78
2020/12/05 06:02:08;;;;;;;34.43;21.20;;;;;;;0.97;87.20;99009.88;4928319;29;20106;-77
2020/12/05 06:04:42;;;;;;;45.13;21.58;;;;;;;1.00;87.07;99027.88;4943329;28;21071;-76
2020/12/05 06:07:14;;;;;;;34.50;20.27;;;;;;;1.05;86.91;99042.38;4923092;29;20043;-77
2020/12/05 06:09:51;;;;;;;37.38;22.00;;;;;;;0.86;87.95;99034.59;4932774;29;21330;-75
2020/12/05 06:12:25;;;;;;;38.22;21.48;;;;;;;0.79;88.67;99041.78;4932849;29;20052;-79
2020/12/05 06:14:54;;;;;;;36.15;21.20;;;;;;;0.87;88.38;99064.78;4930435;29;20098;-77
2020/12/05 06:17:24;;;;;;;33.17;19.42;;;;;;;0.94;88.25;99095.50;4946249;28;20131;-79
2020/12/05 06:19:53;;;;;;;37.08;19.98;;;;;;;1.11;87.63;99102.53;4931755;29;20059;-77
2020/12/05 06:22:36;;;;;;;37.40;20.88;;;;;;;0.92;88.19;99112.03;4957912;28;20048;-77
2020/12/05 06:25:11;;;;;;;40.25;21.80;;;;;;;0.72;88.76;99124.13;4954246;28;20055;-78
2020/12/05 06:27:43;;;;;;;37.83;20.75;;;;;;;0.81;89.08;99122.00;4958505;28;20147;-79
2020/12/05 06:30:10;;;;;;;39.38;21.60;;;;;;;0.82;89.46;99110.75;4941188;29;20083;-77
2020/12/05 06:32:48;;;;;;;40.10;22.17;;;;;;;0.68;89.61;99108.78;4944036;29;20086;-78
2020/12/05 06:35:24;;;;;;;43.40;23.40;;;;;;;1.10;88.39;99108.63;4932585;29;20048;-78
2020/12/05 06:37:52;;;;;;;37.45;21.70;;;;;;;1.01;88.21;99107.28;4942316;29;20131;-79
2020/12/05 06:40:21;;;;;;;40.97;22.25;;;;;;;0.85;89.00;99108.84;4935808;29;20051;-78
2020/12/05 06:42:49;;;;;;;34.67;20.38;;;;;;;0.99;88.28;99103.06;4943500;29;20693;-77
2020/12/05 06:45:25;;;;;;;36.00;21.52;;;;;;;0.98;88.87;99104.81;4961620;28;20057;-79
2020/12/05 06:48:15;;;;;;;36.70;20.08;;;;;;;1.11;88.41;99104.28;4945700;28;20075;-77
2020/12/05 06:50:46;;;;;;;33.10;20.38;;;;;;;1.17;88.41;99114.38;4950388;29;20542;-78
2020/12/05 06:53:21;;;;;;;37.67;20.45;;;;;;;1.17;87.68;99107.47;4937998;29;20059;-75
2020/12/05 06:55:57;;;;;;;36.03;19.52;;;;;;;1.31;87.57;99106.00;4940415;29;20114;-78
2020/12/05 06:58:29;;;;;;;37.75;21.25;;;;;;;1.07;88.28;99097.56;4938126;29;20031;-78
2020/12/05 07:00:56;;;;;;;37.28;21.48;;;;;;;1.09;88.09;99100.94;4941922;29;20051;-77
2020/12/05 07:03:32;;;;;;;36.65;20.65;;;;;;;1.19;88.13;99112.56;4955275;28;20039;-77
2020/12/05 07:06:00;;;;;;;35.45;20.08;;;;;;;1.23;88.01;99099.41;4954287;29;20498;-78
2020/12/05 07:08:26;;;;;;;36.13;20.45;;;;;;;1.19;88.09;99099.59;4954919;28;20063;-76
2020/12/05 07:10:56;;;;;;;32.00;19.40;;;;;;;1.28;88.64;99112.16;4943218;29;20139;-76
2020/12/05 07:13:37;;;;;;;34.05;19.55;;;;;;;1.38;88.16;99116.00;4922756;29;20056;-79
2020/12/05 07:16:23;;;;;;;36.20;18.98;;;;;;;1.55;87.42;99104.03;4958769;29;20044;-79
2020/12/05 07:18:58;;;;;;;32.33;18.73;;;;;;;1.57;87.68;99102.19;4954882;29;20056;-78
2020/12/05 07:21:30;;;;;;;35.13;19.35;;;;;;;1.73;87.73;99098.81;4950623;28;20102;-78
2020/12/05 07:23:57;;;;;;;31.80;18.67;;;;;;;1.86;86.91;99106.03;4958618;28;20066;-78
2020/12/05 07:26:25;;;;;;;33.65;17.98;;;;;;;1.94;86.28;99115.13;4937223;28;20049;-77
2020/12/05 07:28:56;;;;;;;35.67;18.83;;;;;;;2.08;86.04;99124.00;4937279;29;20151;-78
2020/12/05 07:31:24;;;;;;;35.53;17.30;;;;;;;2.18;85.46;99112.25;4926172;29;20071;-80
2020/12/05 07:33:51;;;;;;;28.50;17.00;;;;;;;2.19;85.48;99112.16;4911211;29;20048;-78
2020/12/05 07:36:19;;;;;;;28.55;16.52;;;;;;;2.29;84.76;99103.00;4929416;29;20052;-79
2020/12/05 07:52:22;;;;;;;28.45;16.58;;;;;;;2.49;84.32;99138.41;4948056;23;20679;-76
2020/12/05 07:54:59;;;;;;;27.83;16.98;;;;;;;2.58;84.26;99146.66;4922601;29;20124;-77
2020/12/05 07:57:28;;;;;;;28.67;16.05;;;;;;;2.57;84.19;99153.63;4918955;29;20062;-77
2020/12/05 08:00:07;;;;;;;27.90;15.77;;;;;;;2.69;84.50;99172.94;4920665;29;20083;-74
2020/12/05 08:02:33;;;;;;;28.77;16.63;;;;;;;2.72;83.89;99181.41;4913883;29;20072;-80
2020/12/05 08:05:32;;;;;;;28.23;15.75;;;;;;;2.76;83.74;99195.09;4919524;29;20044;-82
2020/12/05 08:08:04;;;;;;;24.40;15.48;;;;;;;2.79;83.71;99221.78;4934929;29;20048;-79
2020/12/05 08:10:33;;;;;;;27.88;15.98;;;;;;;2.81;83.49;99216.50;4919251;29;20055;-81
2020/12/05 08:13:20;;;;;;;26.90;15.18;;;;;;;2.83;83.63;99214.66;4927792;29;20107;-79
2020/12/05 08:15:50;;;;;;;29.65;17.38;;;;;;;2.89;83.37;99208.34;4907740;29;20063;-81
2020/12/05 08:18:19;;;;;;;27.13;16.55;;;;;;;2.84;83.45;99221.56;4919242;29;20062;-81
2020/12/05 08:20:47;;;;;;;25.95;16.73;;;;;;;2.83;84.28;99232.84;4908469;24;20044;-56
2020/12/05 08:23:34;;;;;;;26.52;16.25;;;;;;;2.87;83.84;99244.78;4894928;29;20067;-58
2020/12/05 08:26:09;;;;;;;26.63;16.10;;;;;;;3.08;83.36;99239.44;4931965;29;20079;-56
2020/12/05 08:28:40;;;;;;;27.30;15.57;;;;;;;3.23;82.05;99231.69;4933947;29;20048;-56
2020/12/05 08:31:09;;;;;;;25.63;16.98;;;;;;;3.59;81.38;99245.47;4919984;29;20059;-58
2020/12/05 08:33:47;;;;;;;25.00;15.00;;;;;;;4.35;78.21;99245.72;4900779;29;20060;-58
2020/12/05 08:36:22;;;;;;;24.33;14.40;;;;;;;5.22;75.45;99243.34;4932091;29;20082;-55
2020/12/05 08:38:49;;;;;;;24.00;14.35;;;;;;;5.75;72.06;99239.28;4931851;29;20537;-55
2020/12/05 08:41:16;;;;;;;27.55;16.10;;;;;;;5.71;73.92;99262.13;4936412;29;20051;-54
2020/12/05 08:43:43;;;;;;;30.73;17.10;;;;;;;6.53;70.10;99247.50;4929155;29;20071;-55
2020/12/05 08:46:27;;;;;;;23.85;14.45;;;;;;;6.29;69.36;99261.16;4930464;29;20775;-58
2020/12/05 08:48:54;;;;;;;27.17;14.25;;;;;;;5.39;72.44;99279.72;4931148;29;20406;-56
2020/12/05 08:51:27;;;;;;;27.17;16.15;;;;;;;4.86;74.77;99301.91;4933738;29;20529;-55
2020/12/05 08:54:05;;;;;;;25.75;15.30;;;;;;;4.54;76.48;99285.47;4912066;29;20086;-53
2020/12/05 08:56:34;;;;;;;25.27;15.07;;;;;;;4.41;77.26;99269.66;4933457;29;20055;-57
2020/12/05 08:59:00;;;;;;;29.92;15.73;;;;;;;4.26;78.38;99247.91;4927772;29;20060;-58
2020/12/05 09:01:35;;;;;;;27.30;15.90;;;;;;;4.23;78.06;99248.09;4927821;29;20079;-58
2020/12/05 09:04:02;;;;;;;24.45;15.80;;;;;;;4.03;79.11;99243.97;4930851;29;20098;-58
2020/12/05 09:06:29;;;;;;;28.30;16.33;;;;;;;3.97;78.95;99244.28;4930439;29;20142;-56
2020/12/05 09:08:56;;;;;;;26.67;15.63;;;;;;;3.93;79.66;99261.00;4929165;29;20044;-55
2020/12/05 09:11:24;;;;;;;23.15;14.50;;;;;;;3.86;80.21;99283.06;4915341;29;20051;-56
2020/12/05 09:13:51;;;;;;;26.40;15.90;;;;;;;3.94;80.23;99317.34;4913003;29;20052;-54
2020/12/05 09:16:18;;;;;;;24.58;15.60;;;;;;;4.04;79.85;99341.16;4927066;29;20172;-54
2020/12/05 09:18:50;;;;;;;27.52;15.73;;;;;;;4.20;78.92;99369.84;4931753;29;20044;-57
2020/12/05 09:21:19;;;;;;;29.25;17.13;;;;;;;4.39;78.27;99378.34;4930789;29;20142;-57
2020/12/05 09:24:04;;;;;;;27.33;15.95;;;;;;;4.80;76.72;99380.47;4926767;29;20098;-57
2020/12/05 09:26:32;;;;;;;24.85;15.23;;;;;;;5.11;75.88;99376.16;4917718;29;20106;-57
2020/12/05 09:28:59;;;;;;;25.90;15.65;;;;;;;5.21;75.35;99370.34;4933541;29;20079;-56
2020/12/05 09:31:26;;;;;;;25.75;16.02;;;;;;;5.21;75.61;99357.28;4916055;29;20147;-57
2020/12/05 09:33:53;;;;;;;24.30;15.30;;;;;;;5.17;75.35;99352.34;4922550;29;20082;-58
2020/12/05 09:36:19;;;;;;;41.97;15.65;;;;;;;5.02;75.93;99349.66;4906538;29;20056;-56
2020/12/05 09:38:46;;;;;;;24.90;15.00;;;;;;;4.92;76.40;99351.13;4925290;29;20050;-56
2020/12/05 09:41:13;;;;;;;23.95;15.02;;;;;;;4.82;77.55;99350.81;4924813;29;20103;-56
2020/12/05 09:43:40;;;;;;;24.23;15.00;;;;;;;4.92;76.61;99347.69;4928171;29;20155;-59
2020/12/05 09:46:06;;;;;;;22.95;15.18;;;;;;;5.03;76.55;99348.75;4912094;29;20051;-57
2020/12/05 09:48:33;;;;;;;21.48;14.43;;;;;;;5.11;76.86;99348.31;4931287;29;20162;-57
2020/12/05 09:51:00;;;;;;;26.27;15.05;;;;;;;5.06;76.82;99356.41;4927839;29;20062;-58
2020/12/05 09:53:27;;;;;;;21.77;14.10;;;;;;;5.11;77.16;99368.34;4904984;29;20052;-55
2020/12/05 09:55:54;;;;;;;22.95;14.55;;;;;;;5.16;76.97;99372.38;4925079;29;20533;-57
2020/12/05 09:58:21;;;;;;;23.98;15.07;;;;;;;5.28;76.47;99360.41;4926521;29;20116;-55
2020/12/05 10:00:48;;;;;;;23.00;14.73;;;;;;;5.43;76.32;99380.38;4925306;29;20059;-59
